sensor_id;sensor_type;location;lat;lon;timestamp;pressure;altitude;pressure_sealevel;temperature;humidity
43420;BME280;29017;51.514;-0.178;2023-04-07T00:02:15;101371.34;;;9.98;73.32
43420;BME280;29017;51.514;-0.178;2023-04-07T00:04:42;101375.75;;;9.98;73.65
43420;BME280;29017;51.514;-0.178;2023-04-07T00:07:09;101378.41;;;9.98;74.30
43420;BME280;29017;51.514;-0.178;2023-04-07T00:09:36;101377.69;;;9.96;74.00
43420;BME280;29017;51.514;-0.178;2023-04-07T00:12:03;101384.78;;;9.95;74.22
43420;BME280;29017;51.514;-0.178;2023-04-07T00:14:30;101384.34;;;9.90;74.50
43420;BME280;29017;51.514;-0.178;2023-04-07T00:16:57;101386.13;;;9.90;74.73
43420;BME280;29017;51.514;-0.178;2023-04-07T00:19:24;101391.63;;;9.86;74.83
43420;BME280;29017;51.514;-0.178;2023-04-07T00:21:50;101389.97;;;9.85;75.26
43420;BME280;29017;51.514;-0.178;2023-04-07T00:24:17;101398.84;;;9.84;75.42
43420;BME280;29017;51.514;-0.178;2023-04-07T00:26:59;101379.75;;;9.82;75.43
43420;BME280;29017;51.514;-0.178;2023-04-07T00:29:26;101390.13;;;9.84;75.53
43420;BME280;29017;51.514;-0.178;2023-04-07T00:31:53;101388.59;;;9.81;75.64
43420;BME280;29017;51.514;-0.178;2023-04-07T00:34:20;101393.00;;;9.81;75.48
43420;BME280;29017;51.514;-0.178;2023-04-07T00:36:47;101393.28;;;9.78;75.37
43420;BME280;29017;51.514;-0.178;2023-04-07T00:39:18;101390.22;;;9.73;75.65
43420;BME280;29017;51.514;-0.178;2023-04-07T00:41:45;101394.09;;;9.69;75.42
43420;BME280;29017;51.514;-0.178;2023-04-07T00:44:12;101394.09;;;9.69;77.40
43420;BME280;29017;51.514;-0.178;2023-04-07T00:46:39;101391.47;;;9.69;76.69
43420;BME280;29017;51.514;-0.178;2023-04-07T00:49:06;101392.53;;;9.66;76.98
43420;BME280;29017;51.514;-0.178;2023-04-07T00:51:36;101395.31;;;9.65;76.96
43420;BME280;29017;51.514;-0.178;2023-04-07T00:54:03;101396.28;;;9.64;76.94
43420;BME280;29017;51.514;-0.178;2023-04-07T00:56:30;101406.22;;;9.60;76.79
43420;BME280;29017;51.514;-0.178;2023-04-07T00:58:57;101401.09;;;9.59;77.16
43420;BME280;29017;51.514;-0.178;2023-04-07T01:01:25;101413.41;;;9.58;77.09
43420;BME280;29017;51.514;-0.178;2023-04-07T01:06:28;101413.53;;;9.57;77.56
43420;BME280;29017;51.514;-0.178;2023-04-07T01:09:01;101413.66;;;9.55;77.53
43420;BME280;29017;51.514;-0.178;2023-04-07T01:13:57;101409.91;;;9.48;77.39
43420;BME280;29017;51.514;-0.178;2023-04-07T01:16:26;101407.97;;;9.50;77.75
43420;BME280;29017;51.514;-0.178;2023-04-07T01:18:56;101412.25;;;9.51;77.55
43420;BME280;29017;51.514;-0.178;2023-04-07T01:21:24;101409.91;;;9.48;77.32
43420;BME280;29017;51.514;-0.178;2023-04-07T01:26:30;101415.69;;;9.42;77.68
43420;BME280;29017;51.514;-0.178;2023-04-07T01:31:38;101407.78;;;9.42;77.55
43420;BME280;29017;51.514;-0.178;2023-04-07T01:34:08;101406.41;;;9.38;77.60
43420;BME280;29017;51.514;-0.178;2023-04-07T01:36:36;101408.19;;;9.37;77.91
43420;BME280;29017;51.514;-0.178;2023-04-07T01:39:03;101406.78;;;9.33;77.84
43420;BME280;29017;51.514;-0.178;2023-04-07T01:41:31;101409.53;;;9.32;78.02
43420;BME280;29017;51.514;-0.178;2023-04-07T01:43:59;101412.16;;;9.32;78.78
43420;BME280;29017;51.514;-0.178;2023-04-07T01:46:26;101407.63;;;9.34;78.55
43420;BME280;29017;51.514;-0.178;2023-04-07T01:48:54;101416.34;;;9.34;79.19
43420;BME280;29017;51.514;-0.178;2023-04-07T01:51:21;101415.75;;;9.31;78.66
43420;BME280;29017;51.514;-0.178;2023-04-07T01:53:49;101428.19;;;9.29;78.83
43420;BME280;29017;51.514;-0.178;2023-04-07T01:56:16;101415.06;;;9.29;78.94
43420;BME280;29017;51.514;-0.178;2023-04-07T01:58:43;101418.53;;;9.29;78.87
43420;BME280;29017;51.514;-0.178;2023-04-07T02:01:10;101422.78;;;9.30;79.00
43420;BME280;29017;51.514;-0.178;2023-04-07T02:06:07;101425.69;;;9.27;79.06
43420;BME280;29017;51.514;-0.178;2023-04-07T02:08:35;101424.84;;;9.27;79.09
43420;BME280;29017;51.514;-0.178;2023-04-07T02:11:04;101424.00;;;9.26;78.82
43420;BME280;29017;51.514;-0.178;2023-04-07T02:13:34;101421.28;;;9.28;79.01
43420;BME280;29017;51.514;-0.178;2023-04-07T02:16:03;101423.78;;;9.29;78.82
43420;BME280;29017;51.514;-0.178;2023-04-07T02:18:31;101427.22;;;9.30;79.00
43420;BME280;29017;51.514;-0.178;2023-04-07T02:20:58;101425.41;;;9.30;78.80
43420;BME280;29017;51.514;-0.178;2023-04-07T02:23:26;101431.38;;;9.32;78.99
43420;BME280;29017;51.514;-0.178;2023-04-07T02:25:55;101441.06;;;9.32;78.55
43420;BME280;29017;51.514;-0.178;2023-04-07T02:28:23;101433.88;;;9.34;78.66
43420;BME280;29017;51.514;-0.178;2023-04-07T02:30:50;101434.56;;;9.36;79.26
43420;BME280;29017;51.514;-0.178;2023-04-07T02:33:17;101442.22;;;9.39;79.09
43420;BME280;29017;51.514;-0.178;2023-04-07T02:35:44;101426.44;;;9.39;79.17
43420;BME280;29017;51.514;-0.178;2023-04-07T02:38:10;101431.69;;;9.39;78.99
43420;BME280;29017;51.514;-0.178;2023-04-07T02:40:37;101428.81;;;9.42;79.18
43420;BME280;29017;51.514;-0.178;2023-04-07T02:43:04;101442.66;;;9.44;78.39
43420;BME280;29017;51.514;-0.178;2023-04-07T02:45:31;101439.31;;;9.42;78.36
43420;BME280;29017;51.514;-0.178;2023-04-07T02:47:58;101441.09;;;9.41;78.53
43420;BME280;29017;51.514;-0.178;2023-04-07T02:50:25;101438.34;;;9.43;79.06
43420;BME280;29017;51.514;-0.178;2023-04-07T02:52:52;101443.34;;;9.46;79.20
43420;BME280;29017;51.514;-0.178;2023-04-07T02:55:19;101430.06;;;9.48;79.26
43420;BME280;29017;51.514;-0.178;2023-04-07T02:57:45;101437.25;;;9.45;79.58
43420;BME280;29017;51.514;-0.178;2023-04-07T03:00:13;101442.78;;;9.42;79.25
43420;BME280;29017;51.514;-0.178;2023-04-07T03:02:40;101435.00;;;9.41;79.01
43420;BME280;29017;51.514;-0.178;2023-04-07T03:05:07;101439.44;;;9.40;79.23
43420;BME280;29017;51.514;-0.178;2023-04-07T03:07:34;101434.34;;;9.39;79.70
43420;BME280;29017;51.514;-0.178;2023-04-07T03:10:01;101443.03;;;9.39;79.57
43420;BME280;29017;51.514;-0.178;2023-04-07T03:12:28;101443.16;;;9.38;78.97
43420;BME280;29017;51.514;-0.178;2023-04-07T03:14:55;101447.13;;;9.32;78.94
43420;BME280;29017;51.514;-0.178;2023-04-07T03:17:22;101446.56;;;9.29;79.40
43420;BME280;29017;51.514;-0.178;2023-04-07T03:19:49;101454.84;;;9.24;79.65
43420;BME280;29017;51.514;-0.178;2023-04-07T03:22:17;101450.78;;;9.20;79.81
43420;BME280;29017;51.514;-0.178;2023-04-07T03:24:44;101447.03;;;9.13;79.97
43420;BME280;29017;51.514;-0.178;2023-04-07T03:27:11;101458.34;;;9.14;80.55
43420;BME280;29017;51.514;-0.178;2023-04-07T03:29:37;101453.09;;;9.14;80.53
43420;BME280;29017;51.514;-0.178;2023-04-07T03:32:04;101452.28;;;9.13;80.87
43420;BME280;29017;51.514;-0.178;2023-04-07T03:34:31;101445.34;;;9.12;80.34
43420;BME280;29017;51.514;-0.178;2023-04-07T03:36:58;101450.59;;;9.12;80.35
43420;BME280;29017;51.514;-0.178;2023-04-07T03:39:25;101455.97;;;9.11;80.38
43420;BME280;29017;51.514;-0.178;2023-04-07T03:41:52;101456.81;;;9.11;80.34
43420;BME280;29017;51.514;-0.178;2023-04-07T03:44:19;101455.97;;;9.11;80.68
43420;BME280;29017;51.514;-0.178;2023-04-07T03:46:46;101456.69;;;9.13;80.69
43420;BME280;29017;51.514;-0.178;2023-04-07T03:49:13;101455.59;;;9.15;80.16
43420;BME280;29017;51.514;-0.178;2023-04-07T03:51:41;101461.56;;;9.17;79.94
43420;BME280;29017;51.514;-0.178;2023-04-07T03:54:08;101460.59;;;9.18;79.77
43420;BME280;29017;51.514;-0.178;2023-04-07T03:56:34;101451.78;;;9.19;79.34
43420;BME280;29017;51.514;-0.178;2023-04-07T03:59:02;101451.78;;;9.19;79.95
43420;BME280;29017;51.514;-0.178;2023-04-07T04:01:29;101444.97;;;9.17;79.87
43420;BME280;29017;51.514;-0.178;2023-04-07T04:03:57;101445.09;;;9.15;79.96
43420;BME280;29017;51.514;-0.178;2023-04-07T04:06:24;101450.47;;;9.14;80.21
43420;BME280;29017;51.514;-0.178;2023-04-07T04:08:52;101453.09;;;9.14;80.20
43420;BME280;29017;51.514;-0.178;2023-04-07T04:11:19;101454.06;;;9.13;80.46
43420;BME280;29017;51.514;-0.178;2023-04-07T04:13:47;101453.34;;;9.11;79.74
43420;BME280;29017;51.514;-0.178;2023-04-07T04:16:14;101453.63;;;9.08;79.98
43420;BME280;29017;51.514;-0.178;2023-04-07T04:18:41;101453.72;;;9.06;81.03
43420;BME280;29017;51.514;-0.178;2023-04-07T04:21:08;101454.84;;;9.04;80.38
43420;BME280;29017;51.514;-0.178;2023-04-07T04:23:35;101447.19;;;9.00;80.42
43420;BME280;29017;51.514;-0.178;2023-04-07T04:26:02;101450.91;;;8.98;80.77
43420;BME280;29017;51.514;-0.178;2023-04-07T04:28:29;101458.06;;;8.96;81.09
43420;BME280;29017;51.514;-0.178;2023-04-07T04:30:56;101454.63;;;8.95;80.46
43420;BME280;29017;51.514;-0.178;2023-04-07T04:33:23;101463.44;;;8.94;80.36
43420;BME280;29017;51.514;-0.178;2023-04-07T04:35:50;101460.13;;;8.92;80.85
43420;BME280;29017;51.514;-0.178;2023-04-07T04:38:17;101463.72;;;8.91;81.03
43420;BME280;29017;51.514;-0.178;2023-04-07T04:40:44;101470.63;;;8.92;80.52
43420;BME280;29017;51.514;-0.178;2023-04-07T04:43:11;101481.97;;;8.93;81.15
43420;BME280;29017;51.514;-0.178;2023-04-07T04:45:38;101477.78;;;8.90;80.73
43420;BME280;29017;51.514;-0.178;2023-04-07T04:48:05;101483.88;;;8.91;80.63
43420;BME280;29017;51.514;-0.178;2023-04-07T04:50:32;101487.31;;;8.91;80.88
43420;BME280;29017;51.514;-0.178;2023-04-07T04:52:59;101490.66;;;8.93;81.44
43420;BME280;29017;51.514;-0.178;2023-04-07T04:55:26;101489.84;;;8.93;81.02
43420;BME280;29017;51.514;-0.178;2023-04-07T04:57:52;101487.91;;;8.95;80.99
43420;BME280;29017;51.514;-0.178;2023-04-07T05:00:20;101486.09;;;8.95;81.32
43420;BME280;29017;51.514;-0.178;2023-04-07T05:02:47;101491.25;;;8.97;80.74
43420;BME280;29017;51.514;-0.178;2023-04-07T05:05:14;101492.91;;;8.98;80.57
43420;BME280;29017;51.514;-0.178;2023-04-07T05:07:41;101496.22;;;9.00;81.42
43420;BME280;29017;51.514;-0.178;2023-04-07T05:10:08;101492.75;;;8.99;80.67
43420;BME280;29017;51.514;-0.178;2023-04-07T05:12:35;101490.13;;;8.99;80.70
43420;BME280;29017;51.514;-0.178;2023-04-07T05:15:02;101490.97;;;9.00;80.82
43420;BME280;29017;51.514;-0.178;2023-04-07T05:17:29;101482.16;;;9.01;80.91
43420;BME280;29017;51.514;-0.178;2023-04-07T05:19:56;101493.59;;;9.00;80.87
43420;BME280;29017;51.514;-0.178;2023-04-07T05:22:25;101499.00;;;8.98;80.97
43420;BME280;29017;51.514;-0.178;2023-04-07T05:24:52;101498.41;;;8.95;81.37
43420;BME280;29017;51.514;-0.178;2023-04-07T05:27:19;101508.22;;;8.93;81.56
43420;BME280;29017;51.514;-0.178;2023-04-07T05:29:46;101510.47;;;8.86;81.22
43420;BME280;29017;51.514;-0.178;2023-04-07T05:32:15;101510.22;;;8.89;82.08
43420;BME280;29017;51.514;-0.178;2023-04-07T05:34:42;101504.13;;;8.89;81.86
43420;BME280;29017;51.514;-0.178;2023-04-07T05:37:09;101511.91;;;8.90;82.19
43420;BME280;29017;51.514;-0.178;2023-04-07T05:39:36;101517.03;;;8.92;81.55
43420;BME280;29017;51.514;-0.178;2023-04-07T05:42:03;101525.75;;;8.92;81.35
43420;BME280;29017;51.514;-0.178;2023-04-07T05:44:30;101526.19;;;8.97;81.54
43420;BME280;29017;51.514;-0.178;2023-04-07T05:46:57;101523.19;;;9.02;81.11
43420;BME280;29017;51.514;-0.178;2023-04-07T05:49:24;101523.75;;;9.06;80.70
43420;BME280;29017;51.514;-0.178;2023-04-07T05:51:51;101533.03;;;9.10;80.69
43420;BME280;29017;51.514;-0.178;2023-04-07T05:54:17;101532.56;;;9.16;80.62
43420;BME280;29017;51.514;-0.178;2023-04-07T05:56:44;101535.63;;;9.21;80.40
43420;BME280;29017;51.514;-0.178;2023-04-07T05:59:11;101531.78;;;9.25;80.61
43420;BME280;29017;51.514;-0.178;2023-04-07T06:01:38;101539.31;;;9.29;80.10
43420;BME280;29017;51.514;-0.178;2023-04-07T06:04:05;101548.72;;;9.32;79.88
43420;BME280;29017;51.514;-0.178;2023-04-07T06:06:32;101551.06;;;9.35;80.29
43420;BME280;29017;51.514;-0.178;2023-04-07T06:08:59;101554.31;;;9.38;79.94
43420;BME280;29017;51.514;-0.178;2023-04-07T06:11:26;101554.31;;;9.38;79.90
43420;BME280;29017;51.514;-0.178;2023-04-07T06:13:53;101546.03;;;9.43;78.93
43420;BME280;29017;51.514;-0.178;2023-04-07T06:16:20;101543.53;;;9.41;78.65
43420;BME280;29017;51.514;-0.178;2023-04-07T06:18:47;101551.16;;;9.44;78.74
43420;BME280;29017;51.514;-0.178;2023-04-07T06:21:14;101550.19;;;9.45;79.15
43420;BME280;29017;51.514;-0.178;2023-04-07T06:23:41;101557.00;;;9.48;79.08
43420;BME280;29017;51.514;-0.178;2023-04-07T06:26:09;101556.59;;;9.53;79.42
43420;BME280;29017;51.514;-0.178;2023-04-07T06:28:36;101558.84;;;9.57;78.94
43420;BME280;29017;51.514;-0.178;2023-04-07T06:31:04;101554.16;;;9.61;77.76
43420;BME280;29017;51.514;-0.178;2023-04-07T06:33:32;101570.75;;;9.61;77.64
43420;BME280;29017;51.514;-0.178;2023-04-07T06:35:58;101569.91;;;9.61;78.43
43420;BME280;29017;51.514;-0.178;2023-04-07T06:38:25;101563.03;;;9.60;78.51
43420;BME280;29017;51.514;-0.178;2023-04-07T06:40:52;101563.72;;;9.62;78.65
43420;BME280;29017;51.514;-0.178;2023-04-07T06:43:19;101570.53;;;9.64;78.67
43420;BME280;29017;51.514;-0.178;2023-04-07T06:45:46;101568.47;;;9.68;78.89
43420;BME280;29017;51.514;-0.178;2023-04-07T06:48:13;101575.97;;;9.72;77.65
43420;BME280;29017;51.514;-0.178;2023-04-07T06:50:40;101566.00;;;9.76;77.80
43420;BME280;29017;51.514;-0.178;2023-04-07T06:53:07;101578.75;;;9.80;78.65
43420;BME280;29017;51.514;-0.178;2023-04-07T06:55:34;101578.44;;;9.95;77.96
43420;BME280;29017;51.514;-0.178;2023-04-07T06:58:01;101583.44;;;10.18;76.63
43420;BME280;29017;51.514;-0.178;2023-04-07T07:00:28;101587.63;;;10.61;75.81
43420;BME280;29017;51.514;-0.178;2023-04-07T07:02:56;101586.03;;;11.08;71.54
43420;BME280;29017;51.514;-0.178;2023-04-07T07:05:23;101594.78;;;11.28;71.47
43420;BME280;29017;51.514;-0.178;2023-04-07T07:07:51;101587.31;;;11.42;70.13
43420;BME280;29017;51.514;-0.178;2023-04-07T07:10:18;101598.25;;;11.67;69.76
43420;BME280;29017;51.514;-0.178;2023-04-07T07:12:48;101591.31;;;11.75;68.72
43420;BME280;29017;51.514;-0.178;2023-04-07T07:15:16;101605.34;;;11.76;68.13
43420;BME280;29017;51.514;-0.178;2023-04-07T07:17:43;101592.44;;;11.73;68.09
43420;BME280;29017;51.514;-0.178;2023-04-07T07:20:10;101599.50;;;11.72;67.72
43420;BME280;29017;51.514;-0.178;2023-04-07T07:22:37;101595.03;;;11.92;67.62
43420;BME280;29017;51.514;-0.178;2023-04-07T07:25:04;101598.91;;;12.34;67.53
43420;BME280;29017;51.514;-0.178;2023-04-07T07:27:31;101609.81;;;12.59;65.00
43420;BME280;29017;51.514;-0.178;2023-04-07T07:29:58;101605.69;;;12.47;64.50
43420;BME280;29017;51.514;-0.178;2023-04-07T07:32:25;101607.75;;;12.53;64.72
43420;BME280;29017;51.514;-0.178;2023-04-07T07:34:52;101617.88;;;12.75;64.43
43420;BME280;29017;51.514;-0.178;2023-04-07T07:37:20;101617.69;;;12.86;63.80
43420;BME280;29017;51.514;-0.178;2023-04-07T07:39:47;101625.03;;;12.92;63.62
43420;BME280;29017;51.514;-0.178;2023-04-07T07:42:13;101628.97;;;13.06;63.50
43420;BME280;29017;51.514;-0.178;2023-04-07T07:44:40;101631.63;;;13.51;62.12
43420;BME280;29017;51.514;-0.178;2023-04-07T07:47:07;101632.41;;;13.69;61.44
43420;BME280;29017;51.514;-0.178;2023-04-07T07:49:34;101637.22;;;13.91;62.05
43420;BME280;29017;51.514;-0.178;2023-04-07T07:52:01;101632.47;;;14.46;59.11
43420;BME280;29017;51.514;-0.178;2023-04-07T07:54:29;101637.50;;;15.08;57.67
43420;BME280;29017;51.514;-0.178;2023-04-07T07:56:56;101643.03;;;15.95;54.72
43420;BME280;29017;51.514;-0.178;2023-04-07T07:59:23;101638.88;;;16.80;52.86
43420;BME280;29017;51.514;-0.178;2023-04-07T08:01:50;101647.84;;;17.33;51.02
43420;BME280;29017;51.514;-0.178;2023-04-07T08:04:17;101647.75;;;17.49;49.72
43420;BME280;29017;51.514;-0.178;2023-04-07T08:06:45;101638.19;;;17.63;49.59
43420;BME280;29017;51.514;-0.178;2023-04-07T08:09:12;101644.22;;;17.57;47.75
43420;BME280;29017;51.514;-0.178;2023-04-07T08:11:39;101647.72;;;17.57;48.82
43420;BME280;29017;51.514;-0.178;2023-04-07T08:14:06;101642.25;;;17.50;49.48
43420;BME280;29017;51.514;-0.178;2023-04-07T08:16:35;101641.16;;;17.14;49.13
43420;BME280;29017;51.514;-0.178;2023-04-07T08:19:02;101646.41;;;16.52;50.37
43420;BME280;29017;51.514;-0.178;2023-04-07T08:21:29;101640.91;;;15.82;52.11
43420;BME280;29017;51.514;-0.178;2023-04-07T08:23:57;101641.00;;;15.24;53.43
43420;BME280;29017;51.514;-0.178;2023-04-07T08:26:24;101644.34;;;14.76;55.17
43420;BME280;29017;51.514;-0.178;2023-04-07T08:28:51;101642.53;;;14.43;56.15
43420;BME280;29017;51.514;-0.178;2023-04-07T08:31:18;101642.00;;;14.13;57.82
43420;BME280;29017;51.514;-0.178;2023-04-07T08:33:45;101655.56;;;13.93;57.82
43420;BME280;29017;51.514;-0.178;2023-04-07T08:36:13;101643.22;;;13.76;59.77
43420;BME280;29017;51.514;-0.178;2023-04-07T08:38:40;101645.41;;;13.62;60.66
43420;BME280;29017;51.514;-0.178;2023-04-07T08:41:10;101638.41;;;13.53;60.92
43420;BME280;29017;51.514;-0.178;2023-04-07T08:43:37;101641.44;;;13.41;61.33
43420;BME280;29017;51.514;-0.178;2023-04-07T08:46:04;101652.88;;;13.32;62.03
43420;BME280;29017;51.514;-0.178;2023-04-07T08:48:34;101644.44;;;13.28;62.02
43420;BME280;29017;51.514;-0.178;2023-04-07T08:51:03;101645.59;;;13.25;62.39
43420;BME280;29017;51.514;-0.178;2023-04-07T08:53:34;101654.63;;;13.23;62.81
43420;BME280;29017;51.514;-0.178;2023-04-07T08:56:02;101655.59;;;13.22;62.26
43420;BME280;29017;51.514;-0.178;2023-04-07T08:58:29;101652.28;;;13.20;62.04
43420;BME280;29017;51.514;-0.178;2023-04-07T09:00:56;101660.22;;;13.20;62.39
43420;BME280;29017;51.514;-0.178;2023-04-07T09:03:24;101668.16;;;13.20;62.14
43420;BME280;29017;51.514;-0.178;2023-04-07T09:05:52;101667.16;;;13.21;61.22
43420;BME280;29017;51.514;-0.178;2023-04-07T09:08:22;101658.41;;;13.20;61.43
43420;BME280;29017;51.514;-0.178;2023-04-07T09:10:49;101664.81;;;13.18;61.40
43420;BME280;29017;51.514;-0.178;2023-04-07T09:13:17;101667.06;;;13.13;61.94
43420;BME280;29017;51.514;-0.178;2023-04-07T09:15:46;101668.88;;;13.12;62.26
43420;BME280;29017;51.514;-0.178;2023-04-07T09:18:18;101674.03;;;13.14;62.02
43420;BME280;29017;51.514;-0.178;2023-04-07T09:25:46;101666.72;;;13.25;62.36
43420;BME280;29017;51.514;-0.178;2023-04-07T09:28:13;101665.81;;;13.35;62.14
43420;BME280;29017;51.514;-0.178;2023-04-07T09:30:40;101665.66;;;13.36;61.62
43420;BME280;29017;51.514;-0.178;2023-04-07T09:33:21;101667.50;;;13.36;61.62
43420;BME280;29017;51.514;-0.178;2023-04-07T09:35:52;101666.22;;;13.40;62.19
43420;BME280;29017;51.514;-0.178;2023-04-07T09:38:19;101665.38;;;13.39;62.19
43420;BME280;29017;51.514;-0.178;2023-04-07T09:40:46;101664.84;;;13.36;62.54
43420;BME280;29017;51.514;-0.178;2023-04-07T09:43:17;101665.63;;;13.46;62.72
43420;BME280;29017;51.514;-0.178;2023-04-07T09:45:44;101668.25;;;13.46;61.70
43420;BME280;29017;51.514;-0.178;2023-04-07T09:50:42;101668.47;;;13.52;60.33
43420;BME280;29017;51.514;-0.178;2023-04-07T09:53:11;101669.66;;;13.58;60.20
43420;BME280;29017;51.514;-0.178;2023-04-07T09:55:38;101658.50;;;13.64;61.32
43420;BME280;29017;51.514;-0.178;2023-04-07T09:58:07;101663.19;;;13.70;59.98
43420;BME280;29017;51.514;-0.178;2023-04-07T10:00:37;101657.94;;;13.78;60.51
43420;BME280;29017;51.514;-0.178;2023-04-07T10:03:04;101655.00;;;13.81;59.67
43420;BME280;29017;51.514;-0.178;2023-04-07T10:05:33;101654.09;;;13.90;59.64
43420;BME280;29017;51.514;-0.178;2023-04-07T10:08:01;101656.94;;;13.97;58.73
43420;BME280;29017;51.514;-0.178;2023-04-07T10:10:28;101660.13;;;14.00;58.69
43420;BME280;29017;51.514;-0.178;2023-04-07T10:12:56;101657.66;;;14.07;60.00
43420;BME280;29017;51.514;-0.178;2023-04-07T10:15:24;101666.13;;;14.10;59.31
43420;BME280;29017;51.514;-0.178;2023-04-07T10:17:52;101670.28;;;14.13;58.01
43420;BME280;29017;51.514;-0.178;2023-04-07T10:20:22;101667.63;;;14.13;57.20
43420;BME280;29017;51.514;-0.178;2023-04-07T10:22:50;101670.09;;;14.06;57.32
43420;BME280;29017;51.514;-0.178;2023-04-07T10:25:18;101664.09;;;14.04;58.26
43420;BME280;29017;51.514;-0.178;2023-04-07T10:30:19;101657.63;;;13.99;59.33
43420;BME280;29017;51.514;-0.178;2023-04-07T10:32:48;101658.44;;;13.99;56.48
43420;BME280;29017;51.514;-0.178;2023-04-07T10:35:16;101652.47;;;13.97;56.05
43420;BME280;29017;51.514;-0.178;2023-04-07T10:42:44;101656.63;;;14.00;55.47
43420;BME280;29017;51.514;-0.178;2023-04-07T10:45:13;101663.13;;;14.05;56.70
43420;BME280;29017;51.514;-0.178;2023-04-07T10:52:38;101650.78;;;14.14;56.96
43420;BME280;29017;51.514;-0.178;2023-04-07T10:57:36;101663.25;;;14.22;56.58
43420;BME280;29017;51.514;-0.178;2023-04-07T11:02:36;101657.84;;;14.31;54.88
43420;BME280;29017;51.514;-0.178;2023-04-07T11:05:04;101651.25;;;14.35;54.45
43420;BME280;29017;51.514;-0.178;2023-04-07T11:12:35;101660.44;;;14.49;53.82
43420;BME280;29017;51.514;-0.178;2023-04-07T11:17:32;101651.84;;;14.47;53.32
43420;BME280;29017;51.514;-0.178;2023-04-07T11:20:00;101642.09;;;14.55;54.26
43420;BME280;29017;51.514;-0.178;2023-04-07T11:22:27;101650.75;;;14.66;53.67
43420;BME280;29017;51.514;-0.178;2023-04-07T11:24:56;101651.47;;;14.76;54.27
43420;BME280;29017;51.514;-0.178;2023-04-07T11:27:23;101648.84;;;14.84;53.28
43420;BME280;29017;51.514;-0.178;2023-04-07T11:29:50;101648.53;;;14.87;52.66
43420;BME280;29017;51.514;-0.178;2023-04-07T11:32:21;101651.66;;;14.82;50.84
43420;BME280;29017;51.514;-0.178;2023-04-07T11:34:51;101650.78;;;14.74;49.22
43420;BME280;29017;51.514;-0.178;2023-04-07T11:37:19;101651.75;;;14.65;50.07
43420;BME280;29017;51.514;-0.178;2023-04-07T11:42:29;101647.75;;;14.61;52.14
43420;BME280;29017;51.514;-0.178;2023-04-07T11:44:57;101653.63;;;14.72;51.44
43420;BME280;29017;51.514;-0.178;2023-04-07T11:49:54;101661.44;;;14.90;47.71
43420;BME280;29017;51.514;-0.178;2023-04-07T11:52:21;101655.50;;;14.96;48.83
43420;BME280;29017;51.514;-0.178;2023-04-07T11:54:48;101656.00;;;14.99;48.56
43420;BME280;29017;51.514;-0.178;2023-04-07T11:59:46;101660.34;;;15.09;50.49
43420;BME280;29017;51.514;-0.178;2023-04-07T12:02:29;101652.91;;;15.20;50.19
43420;BME280;29017;51.514;-0.178;2023-04-07T12:04:56;101659.91;;;15.29;49.56
43420;BME280;29017;51.514;-0.178;2023-04-07T12:07:23;101654.59;;;15.29;49.73
43420;BME280;29017;51.514;-0.178;2023-04-07T12:09:53;101658.91;;;15.30;49.00
43420;BME280;29017;51.514;-0.178;2023-04-07T12:14:50;101663.06;;;15.41;47.21
43420;BME280;29017;51.514;-0.178;2023-04-07T12:17:19;101658.25;;;15.36;45.12
43420;BME280;29017;51.514;-0.178;2023-04-07T12:19:47;101659.75;;;15.31;44.71
43420;BME280;29017;51.514;-0.178;2023-04-07T12:22:14;101662.72;;;15.28;44.94
43420;BME280;29017;51.514;-0.178;2023-04-07T12:24:41;101658.22;;;15.20;46.13
43420;BME280;29017;51.514;-0.178;2023-04-07T12:27:08;101652.91;;;15.12;45.96
43420;BME280;29017;51.514;-0.178;2023-04-07T12:29:35;101656.34;;;15.05;47.43
43420;BME280;29017;51.514;-0.178;2023-04-07T12:32:03;101662.00;;;15.02;46.81
43420;BME280;29017;51.514;-0.178;2023-04-07T12:34:31;101664.44;;;14.95;45.85
43420;BME280;29017;51.514;-0.178;2023-04-07T12:36:58;101659.97;;;14.87;44.43
43420;BME280;29017;51.514;-0.178;2023-04-07T12:39:26;101657.25;;;14.79;44.78
43420;BME280;29017;51.514;-0.178;2023-04-07T12:41:53;101663.03;;;14.75;46.37
43420;BME280;29017;51.514;-0.178;2023-04-07T12:44:20;101656.25;;;14.72;47.15
43420;BME280;29017;51.514;-0.178;2023-04-07T12:46:47;101656.09;;;14.74;48.28
43420;BME280;29017;51.514;-0.178;2023-04-07T12:49:14;101657.94;;;14.81;48.53
43420;BME280;29017;51.514;-0.178;2023-04-07T12:51:42;101660.63;;;14.89;48.17
43420;BME280;29017;51.514;-0.178;2023-04-07T12:54:09;101656.69;;;15.02;48.08
43420;BME280;29017;51.514;-0.178;2023-04-07T12:56:36;101651.94;;;15.13;48.10
43420;BME280;29017;51.514;-0.178;2023-04-07T12:59:03;101654.25;;;15.24;46.16
43420;BME280;29017;51.514;-0.178;2023-04-07T13:01:32;101651.44;;;15.26;45.74
43420;BME280;29017;51.514;-0.178;2023-04-07T13:03:59;101648.63;;;15.27;46.21
43420;BME280;29017;51.514;-0.178;2023-04-07T13:06:27;101646.97;;;15.26;45.63
43420;BME280;29017;51.514;-0.178;2023-04-07T13:08:54;101646.63;;;15.21;45.94
43420;BME280;29017;51.514;-0.178;2023-04-07T13:11:22;101644.47;;;15.25;45.11
43420;BME280;29017;51.514;-0.178;2023-04-07T13:13:49;101650.13;;;15.30;44.37
43420;BME280;29017;51.514;-0.178;2023-04-07T13:16:16;101645.84;;;15.37;43.86
43420;BME280;29017;51.514;-0.178;2023-04-07T13:18:43;101648.31;;;15.47;44.05
43420;BME280;29017;51.514;-0.178;2023-04-07T13:21:10;101654.69;;;15.54;43.61
43420;BME280;29017;51.514;-0.178;2023-04-07T13:23:57;101654.34;;;15.57;43.92
43420;BME280;29017;51.514;-0.178;2023-04-07T13:26:24;101654.50;;;15.55;42.74
43420;BME280;29017;51.514;-0.178;2023-04-07T13:28:52;101655.50;;;15.54;43.13
43420;BME280;29017;51.514;-0.178;2023-04-07T13:31:19;101654.50;;;15.55;44.43
43420;BME280;29017;51.514;-0.178;2023-04-07T13:33:47;101648.69;;;15.60;44.28
43420;BME280;29017;51.514;-0.178;2023-04-07T13:36:15;101645.22;;;15.67;43.63
43420;BME280;29017;51.514;-0.178;2023-04-07T13:38:42;101649.88;;;15.73;42.58
43420;BME280;29017;51.514;-0.178;2023-04-07T13:41:08;101640.59;;;15.77;42.09
43420;BME280;29017;51.514;-0.178;2023-04-07T13:43:36;101644.56;;;15.81;40.42